Time;durP1;ratioP1;P1;durP2;ratioP2;P2;SDS_P1;SDS_P2;PMS_P1;PMS_P2;Temp;Humidity;BMP_temperature;BMP_pressure;BME280_temperature;BME280_humidity;BME280_pressure;Samples;Min_cycle;Max_cycle;Signal;HPM_P1;HPM_P2
2021/03/01 00:02:16;;;;;;;14.75;11.77;;;2.60;74.30;;;;;;5043535;28;20290;-81
2021/03/01 00:04:42;;;;;;;14.35;10.52;;;2.60;74.20;;;;;;5032210;28;20307;-82
2021/03/01 00:07:09;;;;;;;14.93;11.30;;;2.60;74.20;;;;;;5047926;28;20207;-81
2021/03/01 00:09:36;;;;;;;15.70;10.77;;;2.60;74.30;;;;;;5039092;28;20205;-81
2021/03/01 00:12:03;;;;;;;18.77;10.73;;;2.70;74.40;;;;;;5032919;28;20240;-81
2021/03/01 00:14:30;;;;;;;15.23;10.05;;;2.50;74.60;;;;;;5044056;28;20307;-80
2021/03/01 00:16:57;;;;;;;12.68;10.32;;;2.40;74.60;;;;;;5061092;28;20680;-80
2021/03/01 00:19:23;;;;;;;14.10;10.38;;;2.40;74.80;;;;;;5051268;28;20669;-81
2021/03/01 00:21:50;;;;;;;12.52;10.35;;;2.30;75.80;;;;;;5032375;28;20208;-80
2021/03/01 00:24:17;;;;;;;13.18;9.40;;;2.60;76.00;;;;;;5032052;28;20260;-81
2021/03/01 00:26:43;;;;;;;19.38;10.18;;;2.60;74.70;;;;;;5032677;28;20204;-82
2021/03/01 00:29:10;;;;;;;15.70;9.82;;;2.60;75.10;;;;;;5032216;28;20196;-81
2021/03/01 00:31:36;;;;;;;15.18;9.98;;;2.60;75.10;;;;;;5039282;28;20278;-82
2021/03/01 00:34:03;;;;;;;16.42;11.55;;;2.50;74.20;;;;;;5044428;28;20231;-81
2021/03/01 00:36:30;;;;;;;13.25;11.23;;;2.60;73.80;;;;;;5031537;28;20288;-81
2021/03/01 00:38:56;;;;;;;15.38;10.68;;;2.40;73.80;;;;;;5043555;28;20204;-81
2021/03/01 00:41:23;;;;;;;13.68;9.60;;;2.40;74.10;;;;;;5043443;28;20743;-81
2021/03/01 00:43:49;;;;;;;13.93;9.70;;;2.50;74.80;;;;;;5033894;28;20282;-81
2021/03/01 00:46:15;;;;;;;12.77;10.00;;;2.40;74.70;;;;;;5044362;28;20205;-82
2021/03/01 00:48:41;;;;;;;13.82;10.52;;;2.40;75.40;;;;;;5035298;28;20196;-81
2021/03/01 00:51:09;;;;;;;12.73;9.82;;;2.40;75.60;;;;;;5051452;28;20211;-82
2021/03/01 00:53:35;;;;;;;13.48;9.63;;;2.60;74.80;;;;;;5049863;28;20240;-81
2021/03/01 00:56:01;;;;;;;16.30;10.25;;;2.60;74.00;;;;;;5031039;28;20236;-81
2021/03/01 00:58:28;;;;;;;13.63;9.70;;;2.50;73.40;;;;;;5037894;28;20231;-81
2021/03/01 01:00:54;;;;;;;15.52;10.75;;;2.30;73.40;;;;;;5050140;28;20703;-82
2021/03/01 01:03:22;;;;;;;15.65;10.13;;;2.40;73.50;;;;;;5031472;28;20609;-81
2021/03/01 01:05:48;;;;;;;13.60;9.77;;;2.20;73.30;;;;;;5033277;28;20647;-81
2021/03/01 01:08:15;;;;;;;18.45;9.70;;;2.30;74.40;;;;;;5050155;28;20210;-82
2021/03/01 01:10:43;;;;;;;12.07;9.07;;;2.30;73.90;;;;;;5050837;28;20279;-82
2021/03/01 01:13:09;;;;;;;14.13;10.07;;;2.20;73.90;;;;;;5038932;28;20685;-81
2021/03/01 01:15:35;;;;;;;14.30;9.98;;;2.10;74.20;;;;;;5043836;28;20206;-81
2021/03/01 01:18:04;;;;;;;14.55;10.20;;;2.10;74.80;;;;;;5039527;28;20216;-81
2021/03/01 01:20:31;;;;;;;12.63;9.25;;;2.10;75.10;;;;;;5032789;28;20724;-82
2021/03/01 01:22:57;;;;;;;12.32;10.13;;;2.10;75.30;;;;;;5051277;28;20295;-81
2021/03/01 01:25:24;;;;;;;14.85;10.90;;;2.20;75.30;;;;;;5049872;28;20262;-81
2021/03/01 01:27:51;;;;;;;16.65;10.25;;;2.10;75.10;;;;;;5049421;28;20633;-81
2021/03/01 01:30:21;;;;;;;15.15;10.82;;;2.10;75.50;;;;;;5046733;28;20204;-81
2021/03/01 01:32:47;;;;;;;14.25;10.02;;;2.20;76.50;;;;;;5032119;28;20212;-81
2021/03/01 01:35:14;;;;;;;17.70;11.50;;;2.20;76.50;;;;;;5050285;28;20223;-83
2021/03/01 01:37:41;;;;;;;25.20;11.18;;;2.30;76.10;;;;;;5042795;28;20625;-82
2021/03/01 01:40:10;;;;;;;14.00;10.32;;;2.20;75.30;;;;;;5035393;28;20239;-82
2021/03/01 01:42:38;;;;;;;17.05;10.80;;;2.20;75.10;;;;;;5051469;28;20341;-81
2021/03/01 01:45:09;;;;;;;13.13;11.02;;;2.20;75.30;;;;;;5050030;28;20223;-81
2021/03/01 01:47:35;;;;;;;13.02;9.93;;;2.10;74.90;;;;;;5036058;28;20236;-82
2021/03/01 01:50:03;;;;;;;15.18;10.60;;;2.10;74.80;;;;;;5046567;28;20322;-82
2021/03/01 01:52:30;;;;;;;16.63;11.45;;;2.00;75.30;;;;;;5051345;28;20199;-81
2021/03/01 01:54:56;;;;;;;13.07;10.00;;;2.10;75.50;;;;;;5047902;28;20290;-81
2021/03/01 01:57:24;;;;;;;13.05;9.05;;;2.00;75.40;;;;;;5050952;28;20349;-82
2021/03/01 01:59:51;;;;;;;15.15;9.77;;;1.90;75.40;;;;;;5039165;28;20291;-82
2021/03/01 02:02:18;;;;;;;12.95;8.88;;;1.80;75.50;;;;;;5041041;28;20282;-82
2021/03/01 02:04:48;;;;;;;9.93;8.40;;;1.80;75.80;;;;;;5042018;28;20693;-82
2021/03/01 02:07:23;;;;;;;9.68;8.25;;;1.90;76.10;;;;;;5047825;28;20200;-81
2021/03/01 02:10:08;;;;;;;11.27;8.63;;;2.00;76.60;;;;;;5050599;28;20250;-82
2021/03/01 02:12:48;;;;;;;12.95;9.35;;;2.00;76.00;;;;;;5038211;28;20204;-82
2021/03/01 02:15:26;;;;;;;12.43;8.80;;;1.70;75.60;;;;;;5051575;28;20200;-81
2021/03/01 02:17:54;;;;;;;12.68;8.52;;;1.80;76.00;;;;;;5053924;28;20289;-82
2021/03/01 02:20:23;;;;;;;10.95;8.52;;;1.90;76.20;;;;;;5057123;28;20595;-82
2021/03/01 02:22:53;;;;;;;12.55;9.88;;;1.80;77.40;;;;;;5052415;28;20222;-82
2021/03/01 02:25:27;;;;;;;9.60;7.88;;;1.80;77.80;;;;;;5051455;28;20228;-82
2021/03/01 02:28:00;;;;;;;11.63;8.75;;;1.90;77.60;;;;;;5058676;28;20214;-82
2021/03/01 02:30:33;;;;;;;12.95;9.07;;;2.00;78.40;;;;;;5039033;28;20204;-81
2021/03/01 02:33:05;;;;;;;14.43;9.50;;;1.90;78.60;;;;;;5030277;28;20287;-81
2021/03/01 02:35:36;;;;;;;15.48;9.25;;;1.90;77.60;;;;;;5041335;28;20238;-81
2021/03/01 02:38:07;;;;;;;12.23;9.30;;;1.90;78.20;;;;;;5042353;28;20199;-81
2021/03/01 02:40:37;;;;;;;13.23;9.32;;;1.80;78.60;;;;;;5050034;28;20196;-81
2021/03/01 02:43:05;;;;;;;13.85;10.90;;;1.90;78.70;;;;;;5030314;28;20229;-81
2021/03/01 02:45:33;;;;;;;10.60;8.45;;;1.90;78.20;;;;;;5029162;28;20212;-81
2021/03/01 02:48:03;;;;;;;12.65;9.52;;;1.80;78.50;;;;;;5034194;28;20207;-81
2021/03/01 02:50:31;;;;;;;14.98;10.43;;;1.80;78.50;;;;;;5040021;28;20195;-81
2021/03/01 02:53:00;;;;;;;13.52;9.65;;;1.80;79.10;;;;;;5039162;28;20199;-82
2021/03/01 02:55:29;;;;;;;13.52;9.80;;;1.80;79.00;;;;;;5050532;28;20192;-81
2021/03/01 02:57:57;;;;;;;14.90;9.90;;;1.70;77.60;;;;;;5047920;28;20200;-82
2021/03/01 03:00:25;;;;;;;16.60;8.70;;;1.70;77.00;;;;;;5050303;28;20287;-81
2021/03/01 03:02:54;;;;;;;13.13;8.82;;;1.60;76.40;;;;;;5037123;28;20196;-81
2021/03/01 03:05:24;;;;;;;25.35;8.15;;;1.70;77.20;;;;;;5033392;28;20335;-81
2021/03/01 03:07:53;;;;;;;13.20;10.15;;;1.60;77.20;;;;;;5039002;28;20663;-81
2021/03/01 03:10:22;;;;;;;13.18;8.40;;;1.60;77.10;;;;;;5031200;28;20193;-81
2021/03/01 03:12:52;;;;;;;11.85;8.57;;;1.50;76.60;;;;;;5030343;28;20291;-81
2021/03/01 03:15:20;;;;;;;15.00;10.35;;;1.60;77.30;;;;;;5036586;28;20212;-81
2021/03/01 03:17:50;;;;;;;13.18;9.25;;;1.50;78.20;;;;;;5046191;28;20582;-81
2021/03/01 03:20:18;;;;;;;13.05;9.90;;;1.40;78.30;;;;;;5031445;28;20228;-80
2021/03/01 03:22:45;;;;;;;11.00;9.18;;;1.40;78.00;;;;;;5046736;28;20271;-81
2021/03/01 03:25:13;;;;;;;12.07;10.15;;;1.40;78.30;;;;;;5049425;28;20273;-81
2021/03/01 03:27:41;;;;;;;14.85;11.10;;;1.50;78.60;;;;;;5056825;28;20195;-81
2021/03/01 03:30:21;;;;;;;18.02;10.27;;;1.40;77.90;;;;;;5070991;28;20227;-81
2021/03/01 03:32:51;;;;;;;13.48;9.40;;;1.40;78.10;;;;;;5041908;28;20572;-81
2021/03/01 03:35:20;;;;;;;17.10;10.80;;;1.50;78.10;;;;;;5039519;28;20192;-80
2021/03/01 03:37:54;;;;;;;12.27;9.27;;;1.60;77.90;;;;;;5053458;28;20211;-81
2021/03/01 03:40:25;;;;;;;12.27;9.35;;;1.50;78.00;;;;;;5046430;28;20224;-80
2021/03/01 03:42:53;;;;;;;13.35;10.48;;;1.60;78.00;;;;;;5033101;28;20215;-80
2021/03/01 03:45:23;;;;;;;13.40;9.88;;;1.50;78.50;;;;;;5049269;28;20212;-80
2021/03/01 03:47:53;;;;;;;13.57;9.18;;;1.50;77.70;;;;;;5034292;28;20224;-80
2021/03/01 03:50:22;;;;;;;13.80;10.30;;;1.60;77.70;;;;;;5034844;28;20232;-80
2021/03/01 03:52:53;;;;;;;14.65;9.70;;;1.60;78.80;;;;;;5048096;28;20200;-81
2021/03/01 03:55:21;;;;;;;14.50;10.30;;;1.50;77.60;;;;;;5052974;28;20196;-80
2021/03/01 03:57:55;;;;;;;13.57;8.40;;;1.50;76.90;;;;;;5039468;28;20288;-81
2021/03/01 04:00:24;;;;;;;13.50;9.82;;;1.30;77.50;;;;;;5042109;28;20215;-80
2021/03/01 04:02:53;;;;;;;15.10;10.25;;;1.30;77.60;;;;;;5052549;28;20211;-80
2021/03/01 04:05:21;;;;;;;13.95;10.25;;;1.30;77.40;;;;;;5044210;28;20216;-81
2021/03/01 04:07:48;;;;;;;13.18;10.70;;;1.40;77.20;;;;;;5041611;28;20603;-81
2021/03/01 04:10:15;;;;;;;13.88;9.93;;;1.40;77.70;;;;;;5046204;28;20564;-81
2021/03/01 04:12:46;;;;;;;15.13;10.82;;;1.40;77.80;;;;;;5043632;28;20203;-81
2021/03/01 04:15:16;;;;;;;13.90;10.30;;;1.30;78.30;;;;;;5044073;28;20251;-81
2021/03/01 04:17:44;;;;;;;13.45;9.48;;;1.40;77.80;;;;;;5033966;28;20201;-81
2021/03/01 04:20:14;;;;;;;12.38;8.73;;;1.50;78.30;;;;;;5039854;28;20329;-81
2021/03/01 04:22:42;;;;;;;14.13;10.75;;;1.40;77.50;;;;;;5052543;28;20212;-81
2021/03/01 04:25:10;;;;;;;14.27;10.80;;;1.30;76.80;;;;;;5051541;28;20220;-80
2021/03/01 04:27:38;;;;;;;15.18;10.23;;;1.30;77.20;;;;;;5059823;28;20213;-81
2021/03/01 04:30:07;;;;;;;12.90;9.30;;;1.20;77.10;;;;;;5063579;28;20201;-81
2021/03/01 04:32:36;;;;;;;14.20;11.50;;;1.20;77.40;;;;;;5033853;28;20205;-80
2021/03/01 04:35:06;;;;;;;13.07;10.07;;;1.10;78.00;;;;;;5034991;28;20287;-81
2021/03/01 04:37:32;;;;;;;16.95;9.68;;;1.20;79.10;;;;;;5051767;28;20685;-80
2021/03/01 04:39:59;;;;;;;14.98;10.00;;;1.30;78.80;;;;;;5048157;28;20192;-80
2021/03/01 04:42:28;;;;;;;14.13;9.38;;;1.30;78.30;;;;;;5031159;28;20204;-80
2021/03/01 04:44:56;;;;;;;11.48;9.80;;;1.30;78.10;;;;;;5037171;28;20239;-80
2021/03/01 04:47:24;;;;;;;12.07;10.43;;;1.20;77.80;;;;;;5032351;28;20208;-80
2021/03/01 04:49:51;;;;;;;17.35;11.07;;;1.20;77.80;;;;;;5033120;28;20193;-80
2021/03/01 04:52:19;;;;;;;14.95;9.73;;;1.20;77.70;;;;;;5033451;28;20212;-80
2021/03/01 04:54:45;;;;;;;15.15;9.70;;;1.10;77.90;;;;;;5041194;28;20649;-80
2021/03/01 04:57:13;;;;;;;14.75;9.38;;;1.10;78.00;;;;;;5038212;28;20228;-80
2021/03/01 04:59:41;;;;;;;13.65;9.52;;;1.10;78.20;;;;;;5041679;28;20214;-80
2021/03/01 05:02:09;;;;;;;16.95;9.65;;;1.10;78.00;;;;;;5052165;28;20626;-80
2021/03/01 05:04:36;;;;;;;12.55;9.02;;;1.10;78.20;;;;;;5042619;28;20697;-80
2021/03/01 05:07:04;;;;;;;11.80;9.60;;;1.10;78.50;;;;;;5034872;28;20238;-79
2021/03/01 05:09:32;;;;;;;15.07;9.45;;;1.10;78.90;;;;;;5051830;28;20249;-80
2021/03/01 05:11:58;;;;;;;14.43;10.15;;;1.10;79.40;;;;;;5050310;28;20212;-80
2021/03/01 05:14:24;;;;;;;15.70;10.80;;;1.10;79.70;;;;;;5049661;28;20231;-80
2021/03/01 05:16:51;;;;;;;11.55;8.70;;;1.10;80.60;;;;;;5042367;28;20276;-81
2021/03/01 05:19:17;;;;;;;17.02;11.50;;;1.00;80.00;;;;;;5031574;28;20205;-80
2021/03/01 05:21:43;;;;;;;16.20;10.50;;;1.10;79.80;;;;;;5046761;28;20204;-80
2021/03/01 05:24:10;;;;;;;15.68;10.35;;;1.20;79.40;;;;;;5051626;28;20211;-81
2021/03/01 05:26:38;;;;;;;15.13;10.73;;;1.10;79.10;;;;;;5039365;28;20584;-80
2021/03/01 05:29:05;;;;;;;15.18;10.95;;;1.10;79.00;;;;;;5066492;28;20209;-80
2021/03/01 05:31:31;;;;;;;12.50;10.82;;;1.20;79.40;;;;;;5032861;28;20284;-80
2021/03/01 05:33:58;;;;;;;14.20;10.32;;;1.20;79.60;;;;;;5047969;28;20373;-80
2021/03/01 05:36:24;;;;;;;20.58;10.95;;;1.10;79.40;;;;;;5064018;28;20284;-81
2021/03/01 05:38:51;;;;;;;13.73;11.18;;;1.20;80.00;;;;;;5053883;28;20204;-82
2021/03/01 05:41:19;;;;;;;16.17;10.13;;;1.10;80.50;;;;;;5043882;28;20224;-82
2021/03/01 05:43:48;;;;;;;17.40;10.73;;;1.00;82.20;;;;;;5047884;28;20211;-81
2021/03/01 05:46:15;;;;;;;12.63;10.38;;;0.90;82.40;;;;;;5043891;28;20221;-82
2021/03/01 05:48:42;;;;;;;14.77;10.63;;;0.80;83.00;;;;;;5030947;28;20694;-82
2021/03/01 05:51:09;;;;;;;15.48;10.65;;;0.80;84.50;;;;;;5032228;28;20209;-82
2021/03/01 05:53:39;;;;;;;15.55;10.02;;;0.80;85.20;;;;;;5033573;28;20288;-81
2021/03/01 05:56:07;;;;;;;12.57;10.63;;;0.90;84.30;;;;;;5050203;28;20584;-82
2021/03/01 05:58:33;;;;;;;17.08;10.77;;;0.90;84.10;;;;;;5049425;28;20295;-85
2021/03/01 06:01:03;;;;;;;17.05;9.77;;;0.90;84.10;;;;;;5031012;28;20200;-84
2021/03/01 06:03:30;;;;;;;13.13;10.02;;;0.80;84.70;;;;;;5051371;28;20211;-84
2021/03/01 06:05:57;;;;;;;19.00;10.02;;;0.80;85.40;;;;;;5050309;28;20832;-84
2021/03/01 06:08:24;;;;;;;15.75;10.38;;;0.80;86.00;;;;;;5033326;28;20205;-84
2021/03/01 06:10:55;;;;;;;13.75;10.73;;;0.90;85.20;;;;;;5048426;28;20230;-84
2021/03/01 06:13:21;;;;;;;16.70;10.63;;;1.00;84.60;;;;;;5032351;28;20196;-84
2021/03/01 06:15:48;;;;;;;25.80;12.20;;;1.00;82.70;;;;;;5044722;28;20203;-84
2021/03/01 06:18:16;;;;;;;22.75;11.70;;;0.90;81.50;;;;;;5049188;28;20666;-84
2021/03/01 06:20:43;;;;;;;26.30;11.75;;;0.80;82.30;;;;;;5031973;28;20201;-84
2021/03/01 06:23:09;;;;;;;17.30;12.25;;;1.00;82.80;;;;;;5031093;28;20652;-84
2021/03/01 06:25:36;;;;;;;21.88;10.43;;;1.10;82.60;;;;;;5048332;28;20298;-84
2021/03/01 06:28:04;;;;;;;18.63;10.05;;;1.00;81.70;;;;;;5044742;28;20224;-84
2021/03/01 06:30:32;;;;;;;22.48;10.27;;;1.10;82.50;;;;;;5038505;28;20207;-84
2021/03/01 06:33:10;;;;;;;17.42;11.25;;;1.10;82.90;;;;;;5037949;28;20212;-84
2021/03/01 06:35:42;;;;;;;15.07;10.20;;;1.20;83.00;;;;;;5029896;28;20204;-85
2021/03/01 06:38:14;;;;;;;17.27;9.40;;;1.20;81.80;;;;;;5037782;28;20207;-85
2021/03/01 06:40:40;;;;;;;14.88;10.95;;;1.20;81.40;;;;;;5034886;28;20227;-85
2021/03/01 06:43:14;;;;;;;16.27;9.63;;;1.10;81.10;;;;;;5049749;28;20632;-86
2021/03/01 06:45:41;;;;;;;15.93;9.95;;;1.20;81.60;;;;;;5034384;28;20235;-86
2021/03/01 06:48:09;;;;;;;14.95;10.30;;;1.30;81.60;;;;;;5032899;28;20259;-85
2021/03/01 06:50:42;;;;;;;13.73;8.90;;;1.30;81.30;;;;;;5032016;28;20201;-85
2021/03/01 06:53:15;;;;;;;14.00;9.93;;;1.40;81.20;;;;;;5045193;28;20226;-86
2021/03/01 06:55:56;;;;;;;15.13;10.55;;;1.50;81.00;;;;;;5032397;28;20262;-85
2021/03/01 06:58:24;;;;;;;16.70;10.85;;;1.50;81.00;;;;;;5034239;28;20219;-85
2021/03/01 07:00:59;;;;;;;14.38;9.73;;;1.60;81.00;;;;;;5059843;28;20195;-85
2021/03/01 07:03:26;;;;;;;15.15;10.88;;;1.70;81.70;;;;;;5058479;28;20691;-85
2021/03/01 07:05:56;;;;;;;16.83;10.90;;;1.70;82.20;;;;;;5034783;28;20583;-85
2021/03/01 07:08:37;;;;;;;15.02;10.60;;;1.70;83.30;;;;;;5054022;28;20669;-86
2021/03/01 07:11:05;;;;;;;19.90;11.65;;;1.90;84.00;;;;;;5056133;28;20208;-85
2021/03/01 07:13:32;;;;;;;13.85;10.15;;;2.00;83.80;;;;;;5051677;28;20210;-85
2021/03/01 07:16:00;;;;;;;15.98;11.13;;;2.30;82.90;;;;;;5057149;28;20206;-85
2021/03/01 07:18:28;;;;;;;16.20;11.00;;;2.50;82.40;;;;;;5048257;28;20196;-85
2021/03/01 07:20:57;;;;;;;13.07;9.82;;;2.40;82.00;;;;;;5071287;28;20202;-85
2021/03/01 07:23:24;;;;;;;17.55;10.68;;;2.50;85.20;;;;;;5063203;28;20626;-86
2021/03/01 07:25:51;;;;;;;14.30;11.10;;;2.60;83.70;;;;;;5037806;28;20224;-86
2021/03/01 07:28:20;;;;;;;19.70;10.55;;;2.90;83.20;;;;;;5055223;28;20200;-86
2021/03/01 07:30:49;;;;;;;16.13;10.77;;;2.90;81.80;;;;;;5043080;28;20641;-86
2021/03/01 07:33:16;;;;;;;16.70;11.40;;;2.50;82.10;;;;;;5070029;28;20590;-85
2021/03/01 07:35:44;;;;;;;18.65;11.27;;;2.50;83.40;;;;;;5045350;28;20271;-86
2021/03/01 07:38:12;;;;;;;19.50;12.82;;;2.50;83.40;;;;;;5066506;28;20200;-86
2021/03/01 07:40:38;;;;;;;17.17;11.75;;;2.60;83.80;;;;;;5060035;28;20195;-85
2021/03/01 07:43:06;;;;;;;14.70;11.13;;;2.70;83.50;;;;;;5066164;28;20597;-86
2021/03/01 07:45:34;;;;;;;15.02;10.05;;;2.70;83.20;;;;;;5068433;28;20215;-86
2021/03/01 07:48:12;;;;;;;13.57;10.55;;;2.90;83.20;;;;;;5061519;28;20200;-85
2021/03/01 07:50:42;;;;;;;16.80;11.88;;;3.10;83.30;;;;;;5075634;28;20570;-85
2021/03/01 07:53:38;;;;;;;16.27;10.52;;;3.50;83.20;;;;;;5071883;28;20214;-85
2021/03/01 07:56:47;;;;;;;12.48;9.98;;;3.70;82.30;;;;;;5053430;28;20683;-85
2021/03/01 07:59:52;;;;;;;16.27;11.27;;;4.00;81.20;;;;;;5060837;28;20207;-87
2021/03/01 08:02:29;;;;;;;15.80;10.65;;;4.40;80.70;;;;;;5074615;28;20195;-85
2021/03/01 08:04:57;;;;;;;12.73;9.70;;;4.60;79.90;;;;;;5069317;28;20219;-84
2021/03/01 08:07:37;;;;;;;13.82;9.32;;;4.80;78.90;;;;;;5059791;28;20551;-85
2021/03/01 08:10:06;;;;;;;18.58;10.55;;;5.00;77.90;;;;;;5066448;28;20207;-84
2021/03/01 08:12:55;;;;;;;13.50;10.30;;;5.10;76.90;;;;;;5065879;28;20207;-84
2021/03/01 08:15:31;;;;;;;11.43;7.72;;;5.40;75.80;;;;;;5073893;28;20200;-85
2021/03/01 08:17:59;;;;;;;10.98;8.20;;;5.40;75.20;;;;;;5058889;28;20207;-85
2021/03/01 08:21:03;;;;;;;10.90;8.73;;;5.60;74.50;;;;;;5068655;28;20213;-85
2021/03/01 08:23:36;;;;;;;14.20;8.43;;;5.90;73.40;;;;;;5071150;28;20805;-85
2021/03/01 08:26:05;;;;;;;12.75;7.53;;;6.10;71.80;;;;;;5069711;28;20756;-85
2021/03/01 08:28:56;;;;;;;11.68;7.80;;;6.30;71.30;;;;;;5073596;28;20272;-85
2021/03/01 08:31:40;;;;;;;10.85;8.48;;;6.40;70.60;;;;;;5060145;28;20212;-85
2021/03/01 08:34:26;;;;;;;10.48;8.35;;;6.60;69.50;;;;;;5073878;28;20200;-84
2021/03/01 08:36:53;;;;;;;9.00;7.50;;;6.70;69.20;;;;;;5057207;28;20270;-85
2021/03/01 08:39:59;;;;;;;8.70;7.80;;;6.80;68.50;;;;;;5061307;28;20200;-85
2021/03/01 08:42:49;;;;;;;11.13;7.38;;;6.90;68.30;;;;;;5050400;28;20749;-86
2021/03/01 08:45:35;;;;;;;11.85;7.90;;;7.00;67.30;;;;;;5055387;28;20220;-84
2021/03/01 08:48:05;;;;;;;9.15;7.68;;;7.10;66.50;;;;;;5052695;28;20206;-85
2021/03/01 08:50:32;;;;;;;10.27;7.78;;;7.20;67.00;;;;;;5060003;28;20204;-85
2021/03/01 08:52:59;;;;;;;8.20;7.40;;;7.40;65.00;;;;;;5057690;28;20216;-85
2021/03/01 08:55:26;;;;;;;11.63;8.05;;;7.40;64.60;;;;;;5054019;28;20208;-85
2021/03/01 08:58:01;;;;;;;9.00;6.93;;;7.50;64.80;;;;;;5056439;28;20208;-86
2021/03/01 09:00:32;;;;;;;10.77;7.93;;;7.40;63.70;;;;;;5046602;28;20192;-85
2021/03/01 09:03:31;;;;;;;10.45;6.53;;;7.50;63.80;;;;;;5037831;28;20288;-85
2021/03/01 09:06:10;;;;;;;12.38;7.60;;;7.80;62.80;;;;;;5057522;28;20215;-86
2021/03/01 09:08:38;;;;;;;13.10;7.13;;;7.90;62.50;;;;;;5061030;28;20211;-85
2021/03/01 09:11:11;;;;;;;13.30;7.90;;;8.00;62.70;;;;;;5056055;28;20215;-85
2021/03/01 09:13:38;;;;;;;10.85;7.20;;;8.10;61.90;;;;;;5042118;28;20681;-84
2021/03/01 09:16:06;;;;;;;14.30;7.47;;;8.10;61.30;;;;;;5054603;28;20254;-87
2021/03/01 09:18:35;;;;;;;9.85;8.02;;;8.00;61.30;;;;;;5058561;28;20200;-85
2021/03/01 09:21:01;;;;;;;11.95;7.60;;;8.30;61.70;;;;;;5060803;28;20601;-86
2021/03/01 09:23:33;;;;;;;14.20;8.55;;;8.40;60.40;;;;;;5058587;28;20214;-85
2021/03/01 09:26:00;;;;;;;14.23;8.55;;;8.40;60.00;;;;;;5055751;28;20608;-86
2021/03/01 09:28:31;;;;;;;12.23;7.32;;;8.60;59.80;;;;;;5065725;28;20245;-87
2021/03/01 09:31:06;;;;;;;8.38;7.45;;;8.70;59.70;;;;;;5052861;28;20193;-87
2021/03/01 09:33:33;;;;;;;9.05;7.88;;;8.70;60.20;;;;;;5065509;28;20195;-86
2021/03/01 09:36:01;;;;;;;8.82;7.88;;;8.90;60.10;;;;;;5063583;28;20192;-85
2021/03/01 09:38:27;;;;;;;9.93;7.50;;;9.00;59.50;;;;;;5059017;28;20676;-86
2021/03/01 09:40:59;;;;;;;11.18;8.07;;;9.00;59.30;;;;;;5036469;28;20229;-87
2021/03/01 09:43:26;;;;;;;11.80;7.88;;;8.90;58.60;;;;;;5049995;28;20230;-86
2021/03/01 09:45:53;;;;;;;11.35;8.68;;;9.00;58.70;;;;;;5055495;28;20807;-86
2021/03/01 09:48:20;;;;;;;9.40;7.35;;;9.10;58.70;;;;;;5042104;28;20200;-85
2021/03/01 09:50:48;;;;;;;9.32;8.30;;;9.20;58.80;;;;;;5046508;28;20200;-86
2021/03/01 09:53:17;;;;;;;8.55;7.63;;;9.20;58.20;;;;;;5056919;28;20257;-86
2021/03/01 09:55:44;;;;;;;10.38;8.48;;;9.20;58.30;;;;;;5039754;28;20196;-87
2021/03/01 09:58:28;;;;;;;11.35;7.40;;;9.20;57.50;;;;;;5038510;28;20662;-86
2021/03/01 10:01:06;;;;;;;9.48;8.23;;;9.30;57.00;;;;;;5056327;28;20200;-87
2021/03/01 10:03:37;;;;;;;10.02;8.23;;;9.30;56.80;;;;;;5051553;28;20287;-87
2021/03/01 10:06:04;;;;;;;9.68;8.30;;;9.30;57.00;;;;;;5035301;28;20225;-86
2021/03/01 10:08:32;;;;;;;11.40;8.43;;;9.40;56.70;;;;;;5037877;28;20222;-87
2021/03/01 10:10:59;;;;;;;11.25;10.05;;;9.40;56.90;;;;;;5055410;28;20204;-87
2021/03/01 10:13:28;;;;;;;11.23;8.23;;;9.40;55.70;;;;;;5052851;28;20213;-87
2021/03/01 10:15:55;;;;;;;11.27;8.32;;;9.50;55.90;;;;;;5035472;28;20646;-87
2021/03/01 10:18:26;;;;;;;9.00;8.07;;;9.40;55.40;;;;;;5045217;28;20196;-87
2021/03/01 10:20:57;;;;;;;11.85;8.57;;;9.50;55.20;;;;;;5055514;28;20203;-87
2021/03/01 10:23:28;;;;;;;10.18;8.85;;;9.50;54.80;;;;;;5046886;28;20209;-87
2021/03/01 10:26:18;;;;;;;9.68;8.10;;;9.60;54.60;;;;;;5036757;28;20212;-87
2021/03/01 10:28:51;;;;;;;9.60;7.45;;;9.80;54.20;;;;;;5058058;28;20647;-87
2021/03/01 10:31:20;;;;;;;9.55;7.85;;;9.80;53.70;;;;;;5055831;28;20715;-88
2021/03/01 10:34:01;;;;;;;15.97;7.43;;;9.80;53.10;;;;;;5043927;28;20227;-87
2021/03/01 10:36:32;;;;;;;8.32;7.38;;;9.80;53.20;;;;;;5047710;28;21031;-86
2021/03/01 10:39:09;;;;;;;8.70;7.10;;;9.90;53.20;;;;;;5055565;28;20229;-87
2021/03/01 10:41:43;;;;;;;9.70;7.37;;;9.90;53.60;;;;;;5041789;28;20638;-87
2021/03/01 10:44:11;;;;;;;22.13;8.10;;;10.00;52.40;;;;;;5035230;28;20622;-85
2021/03/01 10:46:42;;;;;;;9.70;6.87;;;10.20;52.10;;;;;;5047035;28;20665;-87
2021/03/01 10:49:25;;;;;;;8.50;7.67;;;10.40;52.00;;;;;;5055130;28;20606;-87
2021/03/01 10:51:53;;;;;;;8.07;7.33;;;10.40;50.40;;;;;;5045817;28;20765;-87
2021/03/01 10:54:20;;;;;;;9.20;6.87;;;10.40;50.80;;;;;;5035063;28;20599;-87
2021/03/01 10:56:49;;;;;;;9.13;6.67;;;10.50;50.00;;;;;;5035623;28;20611;-87
2021/03/01 10:59:16;;;;;;;9.27;6.80;;;10.40;49.80;;;;;;5034999;28;20599;-87
2021/03/01 11:01:43;;;;;;;8.33;6.47;;;10.40;49.50;;;;;;5044814;28;20633;-87
2021/03/01 11:04:11;;;;;;;6.60;5.57;;;10.50;48.80;;;;;;5053265;28;20617;-87
2021/03/01 11:06:39;;;;;;;8.53;5.70;;;10.60;48.80;;;;;;5045675;28;20987;-87
2021/03/01 11:09:08;;;;;;;8.47;6.30;;;10.70;47.90;;;;;;5055110;28;20622;-88
2021/03/01 11:11:36;;;;;;;13.10;5.83;;;10.70;48.70;;;;;;5054581;28;20671;-88
2021/03/01 11:14:04;;;;;;;13.80;5.97;;;10.70;46.50;;;;;;5054468;28;20602;-87
2021/03/01 11:16:32;;;;;;;8.83;5.90;;;10.70;45.70;;;;;;5035697;28;20619;-88
2021/03/01 11:19:02;;;;;;;6.90;5.47;;;10.60;46.00;;;;;;5037247;28;20637;-88
2021/03/01 11:22:06;;;;;;;6.13;4.93;;;10.70;46.60;;;;;;5036499;28;20661;-89
2021/03/01 11:24:36;;;;;;;6.83;5.47;;;10.80;45.30;;;;;;5035719;28;20630;-88
2021/03/01 11:27:02;;;;;;;10.90;5.20;;;10.80;44.80;;;;;;5056469;28;21220;-88
2021/03/01 11:29:30;;;;;;;5.83;5.10;;;11.00;44.80;;;;;;5065898;28;20622;-87
2021/03/01 11:32:17;;;;;;;5.97;5.30;;;11.00;44.70;;;;;;5052666;28;20638;-88
2021/03/01 11:34:46;;;;;;;6.95;5.40;;;11.10;43.80;;;;;;5033876;28;20745;-87
2021/03/01 11:37:13;;;;;;;6.90;5.17;;;11.20;43.50;;;;;;5037217;28;20207;-86
2021/03/01 11:39:39;;;;;;;8.70;5.27;;;11.20;43.70;;;;;;5044365;28;20630;-88
2021/03/01 11:42:06;;;;;;;9.30;4.93;;;11.30;43.30;;;;;;5034911;28;20611;-86
2021/03/01 11:44:33;;;;;;;6.40;4.43;;;11.40;43.00;;;;;;5053026;28;20656;-87
2021/03/01 11:47:00;;;;;;;6.37;4.93;;;11.40;43.40;;;;;;5053180;28;20688;-87
2021/03/01 11:49:26;;;;;;;8.37;5.83;;;11.40;42.70;;;;;;5054218;28;20618;-87
2021/03/01 11:51:52;;;;;;;6.37;5.30;;;11.40;42.10;;;;;;5056273;28;20610;-86
2021/03/01 11:54:19;;;;;;;6.80;5.27;;;11.50;41.90;;;;;;5057852;28;20636;-87
2021/03/01 11:56:45;;;;;;;5.57;4.10;;;11.70;42.50;;;;;;5057765;28;20614;-87
2021/03/01 11:59:12;;;;;;;10.70;6.00;;;11.60;41.70;;;;;;5057786;28;20622;-88
2021/03/01 12:01:40;;;;;;;4.20;3.80;;;11.70;42.70;;;;;;5052441;28;20638;-86
2021/03/01 12:04:07;;;;;;;7.93;4.67;;;11.70;42.10;;;;;;5048324;28;20642;-88
2021/03/01 12:06:33;;;;;;;7.65;4.60;;;11.80;42.20;;;;;;5039296;28;21282;-87
2021/03/01 12:09:00;;;;;;;4.83;4.40;;;11.80;41.90;;;;;;5043043;28;20503;-87
2021/03/01 12:11:26;;;;;;;6.07;4.77;;;11.90;42.40;;;;;;5063638;28;20621;-87
2021/03/01 12:13:53;;;;;;;5.60;4.40;;;11.90;42.20;;;;;;5066134;28;20727;-88
2021/03/01 12:16:20;;;;;;;8.37;4.60;;;12.10;42.20;;;;;;5036371;28;20642;-88
2021/03/01 12:19:07;;;;;;;9.93;4.07;;;12.00;42.40;;;;;;5054514;28;20652;-88
2021/03/01 12:21:41;;;;;;;5.90;4.50;;;12.20;42.70;;;;;;5062987;28;20634;-87
2021/03/01 12:24:14;;;;;;;5.77;4.47;;;12.20;41.60;;;;;;5062312;28;20614;-88
2021/03/01 12:26:43;;;;;;;5.17;4.07;;;12.20;41.60;;;;;;5057831;28;20686;-88
2021/03/01 12:29:12;;;;;;;4.90;3.50;;;12.30;41.70;;;;;;5041118;28;20676;-88
2021/03/01 12:31:38;;;;;;;5.00;4.50;;;12.30;42.30;;;;;;5050935;28;20720;-86
2021/03/01 12:34:06;;;;;;;5.33;4.40;;;12.40;42.80;;;;;;5059526;28;20615;-87
2021/03/01 12:36:32;;;;;;;6.13;4.57;;;12.30;42.30;;;;;;5056882;28;20645;-87
2021/03/01 12:38:59;;;;;;;4.40;4.00;;;12.50;43.20;;;;;;5058276;28;20631;-86
2021/03/01 12:41:25;;;;;;;5.10;4.07;;;12.50;42.60;;;;;;5052853;28;20621;-85
2021/03/01 12:43:52;;;;;;;6.30;4.83;;;12.60;42.50;;;;;;5047416;28;20735;-86
2021/03/01 12:46:18;;;;;;;7.60;4.60;;;12.50;42.70;;;;;;5056204;28;20688;-87
2021/03/01 12:48:45;;;;;;;5.70;4.33;;;12.50;43.50;;;;;;5049825;28;20677;-86
2021/03/01 12:51:12;;;;;;;5.23;4.73;;;12.50;43.60;;;;;;5046977;28;20614;-87
2021/03/01 12:53:38;;;;;;;4.23;3.83;;;12.60;43.80;;;;;;5057662;28;20626;-86
2021/03/01 12:56:05;;;;;;;4.10;3.70;;;12.70;44.50;;;;;;5058456;28;20609;-87
2021/03/01 12:58:32;;;;;;;4.40;4.00;;;12.70;44.30;;;;;;5054009;28;20626;-87